Dunswell, United Kingdom
Current Conditions -  °F | °C
As of 7:50 AM on Monday 22 Dec 2014 (Local Time) from EGXV Reporting Station
Overcast Overcast  
Wind Chill: 55°   Ceiling: 2400
Heat Index: 55°   Visibility: 6mi
Dew Point: 48°   Wind: 20mph
Humidity: 77%   Direction: 250°WSW
Pressure: 29.71"   Gusts: 39mph
Location:  53.8°N, 0.37°W
Report Text: EGXV 220750Z AUTO 25017G34KT 9999 OVC024/// 13/09 Q1006
Loading
Personal Weather Stations






























Interactive Weather Map New forecast layout! Learn more

10-Day Weather Forecast

Advertisements
Track Severe Weather on mobile